sensor_id;sensor_type;location;lat;lon;timestamp;temperature;humidity
12504;DHT22;6316;48.118;-1.690;2022-11-20T00:01:16;8.40;99.90
12504;DHT22;6316;48.118;-1.690;2022-11-20T00:03:43;8.50;99.90
12504;DHT22;6316;48.118;-1.690;2022-11-20T00:06:11;8.50;99.90
12504;DHT22;6316;48.118;-1.690;2022-11-20T00:08:36;8.50;99.90
12504;DHT22;6316;48.118;-1.690;2022-11-20T00:11:11;8.50;99.90
12504;DHT22;6316;48.118;-1.690;2022-11-20T00:13:38;8.60;99.90
12504;DHT22;6316;48.118;-1.690;2022-11-20T00:16:05;8.50;99.90
12504;DHT22;6316;48.118;-1.690;2022-11-20T00:18:33;8.60;99.90
12504;DHT22;6316;48.118;-1.690;2022-11-20T00:21:14;8.60;99.90
12504;DHT22;6316;48.118;-1.690;2022-11-20T00:23:40;8.60;99.90
12504;DHT22;6316;48.118;-1.690;2022-11-20T00:26:09;8.60;99.90
12504;DHT22;6316;48.118;-1.690;2022-11-20T00:28:35;8.60;99.90
12504;DHT22;6316;48.118;-1.690;2022-11-20T00:31:21;8.70;99.90
12504;DHT22;6316;48.118;-1.690;2022-11-20T00:33:47;8.70;99.90
12504;DHT22;6316;48.118;-1.690;2022-11-20T00:36:15;8.70;99.90
12504;DHT22;6316;48.118;-1.690;2022-11-20T00:38:41;8.70;99.90
12504;DHT22;6316;48.118;-1.690;2022-11-20T00:41:09;8.70;99.90
12504;DHT22;6316;48.118;-1.690;2022-11-20T00:43:35;8.80;99.90
12504;DHT22;6316;48.118;-1.690;2022-11-20T00:46:05;8.80;99.90
12504;DHT22;6316;48.118;-1.690;2022-11-20T00:48:31;8.80;99.90
12504;DHT22;6316;48.118;-1.690;2022-11-20T00:50:57;8.80;99.90
12504;DHT22;6316;48.118;-1.690;2022-11-20T00:53:23;8.90;99.90
12504;DHT22;6316;48.118;-1.690;2022-11-20T00:56:03;8.80;99.90
12504;DHT22;6316;48.118;-1.690;2022-11-20T00:58:31;8.80;99.90
12504;DHT22;6316;48.118;-1.690;2022-11-20T01:03:35;8.90;99.90
12504;DHT22;6316;48.118;-1.690;2022-11-20T01:06:02;8.90;99.90
12504;DHT22;6316;48.118;-1.690;2022-11-20T01:08:30;8.90;99.90
12504;DHT22;6316;48.118;-1.690;2022-11-20T01:11:05;8.90;99.90
12504;DHT22;6316;48.118;-1.690;2022-11-20T01:13:31;8.90;99.90
12504;DHT22;6316;48.118;-1.690;2022-11-20T01:18:33;8.90;99.90
12504;DHT22;6316;48.118;-1.690;2022-11-20T01:21:05;8.90;99.90
12504;DHT22;6316;48.118;-1.690;2022-11-20T01:23:35;8.90;99.90
12504;DHT22;6316;48.118;-1.690;2022-11-20T01:26:07;8.90;99.90
12504;DHT22;6316;48.118;-1.690;2022-11-20T01:28:34;8.90;99.90
12504;DHT22;6316;48.118;-1.690;2022-11-20T01:31:00;8.90;99.90
12504;DHT22;6316;48.118;-1.690;2022-11-20T01:33:26;8.90;99.90
12504;DHT22;6316;48.118;-1.690;2022-11-20T01:35:52;8.90;99.90
12504;DHT22;6316;48.118;-1.690;2022-11-20T01:38:18;9.00;99.90
12504;DHT22;6316;48.118;-1.690;2022-11-20T01:40:53;8.90;99.90
12504;DHT22;6316;48.118;-1.690;2022-11-20T01:43:20;8.90;99.90
12504;DHT22;6316;48.118;-1.690;2022-11-20T01:51:41;8.90;99.90
12504;DHT22;6316;48.118;-1.690;2022-11-20T01:54:13;8.90;99.90
12504;DHT22;6316;48.118;-1.690;2022-11-20T01:56:43;8.90;99.90
12504;DHT22;6316;48.118;-1.690;2022-11-20T01:59:10;8.90;99.90
12504;DHT22;6316;48.118;-1.690;2022-11-20T02:01:37;8.90;99.90
12504;DHT22;6316;48.118;-1.690;2022-11-20T02:04:05;8.90;99.90
12504;DHT22;6316;48.118;-1.690;2022-11-20T02:06:40;9.00;99.90
12504;DHT22;6316;48.118;-1.690;2022-11-20T02:09:08;9.00;99.90
12504;DHT22;6316;48.118;-1.690;2022-11-20T02:11:33;9.00;99.90
12504;DHT22;6316;48.118;-1.690;2022-11-20T02:13:59;9.00;99.90
12504;DHT22;6316;48.118;-1.690;2022-11-20T02:16:39;9.00;99.90
12504;DHT22;6316;48.118;-1.690;2022-11-20T02:19:08;9.00;99.90
12504;DHT22;6316;48.118;-1.690;2022-11-20T02:21:51;9.00;99.90
12504;DHT22;6316;48.118;-1.690;2022-11-20T02:24:22;9.00;99.90
12504;DHT22;6316;48.118;-1.690;2022-11-20T02:29:25;9.00;99.90
12504;DHT22;6316;48.118;-1.690;2022-11-20T02:31:51;9.10;99.90
12504;DHT22;6316;48.118;-1.690;2022-11-20T02:34:18;9.10;99.90
12504;DHT22;6316;48.118;-1.690;2022-11-20T02:36:44;9.10;99.90
12504;DHT22;6316;48.118;-1.690;2022-11-20T02:39:13;9.00;99.90
12504;DHT22;6316;48.118;-1.690;2022-11-20T02:41:42;9.10;99.90
12504;DHT22;6316;48.118;-1.690;2022-11-20T02:44:08;9.10;99.90
12504;DHT22;6316;48.118;-1.690;2022-11-20T02:46:34;9.10;99.90
12504;DHT22;6316;48.118;-1.690;2022-11-20T02:49:02;9.10;99.90
12504;DHT22;6316;48.118;-1.690;2022-11-20T02:51:28;9.10;99.90
12504;DHT22;6316;48.118;-1.690;2022-11-20T02:53:54;9.10;99.90
12504;DHT22;6316;48.118;-1.690;2022-11-20T02:56:20;9.10;99.90
12504;DHT22;6316;48.118;-1.690;2022-11-20T02:58:46;9.10;99.90
12504;DHT22;6316;48.118;-1.690;2022-11-20T03:01:11;9.10;99.90
12504;DHT22;6316;48.118;-1.690;2022-11-20T03:03:37;9.20;99.90
12504;DHT22;6316;48.118;-1.690;2022-11-20T03:06:02;9.20;99.90
12504;DHT22;6316;48.118;-1.690;2022-11-20T03:08:28;9.20;99.90
12504;DHT22;6316;48.118;-1.690;2022-11-20T03:10:54;9.20;99.90
12504;DHT22;6316;48.118;-1.690;2022-11-20T03:13:19;9.10;99.90
12504;DHT22;6316;48.118;-1.690;2022-11-20T03:15:45;9.10;99.90
12504;DHT22;6316;48.118;-1.690;2022-11-20T03:18:10;9.10;99.90
12504;DHT22;6316;48.118;-1.690;2022-11-20T03:20:36;9.10;99.90
12504;DHT22;6316;48.118;-1.690;2022-11-20T03:23:02;9.10;99.90
12504;DHT22;6316;48.118;-1.690;2022-11-20T03:25:27;9.10;99.90
12504;DHT22;6316;48.118;-1.690;2022-11-20T03:27:54;9.10;99.90
12504;DHT22;6316;48.118;-1.690;2022-11-20T03:30:19;9.10;99.90
12504;DHT22;6316;48.118;-1.690;2022-11-20T03:32:45;9.10;99.90
12504;DHT22;6316;48.118;-1.690;2022-11-20T03:35:11;9.10;99.90
12504;DHT22;6316;48.118;-1.690;2022-11-20T03:37:36;9.10;99.90
12504;DHT22;6316;48.118;-1.690;2022-11-20T03:40:03;9.10;99.90
12504;DHT22;6316;48.118;-1.690;2022-11-20T03:42:28;9.10;99.90
12504;DHT22;6316;48.118;-1.690;2022-11-20T03:45:18;9.20;99.90
12504;DHT22;6316;48.118;-1.690;2022-11-20T03:47:44;9.20;99.90
12504;DHT22;6316;48.118;-1.690;2022-11-20T03:50:12;9.20;99.90
12504;DHT22;6316;48.118;-1.690;2022-11-20T03:52:38;9.30;99.90
12504;DHT22;6316;48.118;-1.690;2022-11-20T03:55:05;9.20;99.90
12504;DHT22;6316;48.118;-1.690;2022-11-20T03:57:31;9.20;99.90
12504;DHT22;6316;48.118;-1.690;2022-11-20T03:59:56;9.20;99.90
12504;DHT22;6316;48.118;-1.690;2022-11-20T04:02:22;9.30;99.90
12504;DHT22;6316;48.118;-1.690;2022-11-20T04:04:48;9.30;99.90
12504;DHT22;6316;48.118;-1.690;2022-11-20T04:07:13;9.30;99.90
12504;DHT22;6316;48.118;-1.690;2022-11-20T04:09:39;9.30;99.90
12504;DHT22;6316;48.118;-1.690;2022-11-20T04:12:04;9.20;99.90
12504;DHT22;6316;48.118;-1.690;2022-11-20T04:14:30;9.30;99.90
12504;DHT22;6316;48.118;-1.690;2022-11-20T04:16:56;9.30;99.90
12504;DHT22;6316;48.118;-1.690;2022-11-20T04:19:21;9.30;99.90
12504;DHT22;6316;48.118;-1.690;2022-11-20T04:21:47;9.40;99.90
12504;DHT22;6316;48.118;-1.690;2022-11-20T04:24:12;9.40;99.90
12504;DHT22;6316;48.118;-1.690;2022-11-20T04:26:39;9.40;99.90
12504;DHT22;6316;48.118;-1.690;2022-11-20T04:29:05;9.40;99.90
12504;DHT22;6316;48.118;-1.690;2022-11-20T04:31:33;9.40;99.90
12504;DHT22;6316;48.118;-1.690;2022-11-20T04:34:04;9.50;99.90
12504;DHT22;6316;48.118;-1.690;2022-11-20T04:36:30;9.40;99.90
12504;DHT22;6316;48.118;-1.690;2022-11-20T04:38:58;9.50;99.90
12504;DHT22;6316;48.118;-1.690;2022-11-20T04:41:26;9.50;99.90
12504;DHT22;6316;48.118;-1.690;2022-11-20T04:43:55;9.50;99.90
12504;DHT22;6316;48.118;-1.690;2022-11-20T04:46:32;9.50;99.90
12504;DHT22;6316;48.118;-1.690;2022-11-20T04:48:58;9.50;99.90
12504;DHT22;6316;48.118;-1.690;2022-11-20T04:51:24;9.50;99.90
12504;DHT22;6316;48.118;-1.690;2022-11-20T04:53:50;9.50;99.90
12504;DHT22;6316;48.118;-1.690;2022-11-20T04:56:16;9.50;99.90
12504;DHT22;6316;48.118;-1.690;2022-11-20T04:58:41;9.50;99.90
12504;DHT22;6316;48.118;-1.690;2022-11-20T05:01:18;9.60;99.90
12504;DHT22;6316;48.118;-1.690;2022-11-20T05:03:45;9.60;99.90
12504;DHT22;6316;48.118;-1.690;2022-11-20T05:06:13;9.60;99.90
12504;DHT22;6316;48.118;-1.690;2022-11-20T05:08:39;9.60;99.90
12504;DHT22;6316;48.118;-1.690;2022-11-20T05:11:10;9.60;99.90
12504;DHT22;6316;48.118;-1.690;2022-11-20T05:13:36;9.60;99.90
12504;DHT22;6316;48.118;-1.690;2022-11-20T05:16:10;9.60;99.90
12504;DHT22;6316;48.118;-1.690;2022-11-20T05:18:36;9.60;99.90
12504;DHT22;6316;48.118;-1.690;2022-11-20T05:21:02;9.60;99.90
12504;DHT22;6316;48.118;-1.690;2022-11-20T05:23:30;9.60;99.90
12504;DHT22;6316;48.118;-1.690;2022-11-20T05:25:57;9.70;99.90
12504;DHT22;6316;48.118;-1.690;2022-11-20T05:28:23;9.70;99.90
12504;DHT22;6316;48.118;-1.690;2022-11-20T05:30:50;9.70;99.90
12504;DHT22;6316;48.118;-1.690;2022-11-20T05:33:15;9.70;99.90
12504;DHT22;6316;48.118;-1.690;2022-11-20T05:35:41;9.70;99.90
12504;DHT22;6316;48.118;-1.690;2022-11-20T05:38:07;9.70;99.90
12504;DHT22;6316;48.118;-1.690;2022-11-20T05:40:33;9.80;99.90
12504;DHT22;6316;48.118;-1.690;2022-11-20T05:42:59;9.70;99.90
12504;DHT22;6316;48.118;-1.690;2022-11-20T05:45:25;9.80;99.90
12504;DHT22;6316;48.118;-1.690;2022-11-20T05:47:51;9.80;99.90
12504;DHT22;6316;48.118;-1.690;2022-11-20T05:50:16;9.80;99.90
12504;DHT22;6316;48.118;-1.690;2022-11-20T05:52:42;9.80;99.90
12504;DHT22;6316;48.118;-1.690;2022-11-20T05:55:08;9.80;99.90
12504;DHT22;6316;48.118;-1.690;2022-11-20T05:57:34;9.80;99.90
12504;DHT22;6316;48.118;-1.690;2022-11-20T05:59:59;9.90;99.90
12504;DHT22;6316;48.118;-1.690;2022-11-20T06:02:25;9.90;99.90
12504;DHT22;6316;48.118;-1.690;2022-11-20T06:04:51;9.90;99.90
12504;DHT22;6316;48.118;-1.690;2022-11-20T06:07:16;9.90;99.90
12504;DHT22;6316;48.118;-1.690;2022-11-20T06:09:42;9.90;99.90
12504;DHT22;6316;48.118;-1.690;2022-11-20T06:12:08;9.90;99.90
12504;DHT22;6316;48.118;-1.690;2022-11-20T06:14:33;9.80;99.90
12504;DHT22;6316;48.118;-1.690;2022-11-20T06:16:59;9.80;99.90
12504;DHT22;6316;48.118;-1.690;2022-11-20T06:19:25;9.80;99.90
12504;DHT22;6316;48.118;-1.690;2022-11-20T06:21:50;9.80;99.90
12504;DHT22;6316;48.118;-1.690;2022-11-20T06:24:16;9.70;99.90
12504;DHT22;6316;48.118;-1.690;2022-11-20T06:26:42;9.80;99.90
12504;DHT22;6316;48.118;-1.690;2022-11-20T06:29:08;9.80;99.90
12504;DHT22;6316;48.118;-1.690;2022-11-20T06:31:33;9.80;99.90
12504;DHT22;6316;48.118;-1.690;2022-11-20T06:34:03;9.80;99.90
12504;DHT22;6316;48.118;-1.690;2022-11-20T06:36:29;9.80;99.90
12504;DHT22;6316;48.118;-1.690;2022-11-20T06:38:55;9.80;99.90
12504;DHT22;6316;48.118;-1.690;2022-11-20T06:41:21;9.80;99.90
12504;DHT22;6316;48.118;-1.690;2022-11-20T06:43:47;9.80;99.90
12504;DHT22;6316;48.118;-1.690;2022-11-20T06:46:14;9.80;99.90
12504;DHT22;6316;48.118;-1.690;2022-11-20T06:48:43;9.80;99.90
12504;DHT22;6316;48.118;-1.690;2022-11-20T06:51:08;9.80;99.90
12504;DHT22;6316;48.118;-1.690;2022-11-20T06:53:35;9.80;99.90
12504;DHT22;6316;48.118;-1.690;2022-11-20T06:56:01;9.90;99.90
12504;DHT22;6316;48.118;-1.690;2022-11-20T06:58:27;9.80;99.90
12504;DHT22;6316;48.118;-1.690;2022-11-20T07:00:57;9.90;99.90
12504;DHT22;6316;48.118;-1.690;2022-11-20T07:03:22;9.80;99.90
12504;DHT22;6316;48.118;-1.690;2022-11-20T07:05:48;9.80;99.90
12504;DHT22;6316;48.118;-1.690;2022-11-20T07:08:14;9.80;99.90
12504;DHT22;6316;48.118;-1.690;2022-11-20T07:10:39;9.80;99.90
12504;DHT22;6316;48.118;-1.690;2022-11-20T07:13:05;9.80;99.90
12504;DHT22;6316;48.118;-1.690;2022-11-20T07:15:32;9.80;99.90
12504;DHT22;6316;48.118;-1.690;2022-11-20T07:18:01;9.80;99.90
12504;DHT22;6316;48.118;-1.690;2022-11-20T07:20:27;9.80;99.90
12504;DHT22;6316;48.118;-1.690;2022-11-20T07:22:58;9.80;99.90
12504;DHT22;6316;48.118;-1.690;2022-11-20T07:25:27;9.80;99.90
12504;DHT22;6316;48.118;-1.690;2022-11-20T07:27:57;9.80;99.90
12504;DHT22;6316;48.118;-1.690;2022-11-20T07:30:23;9.80;99.90
12504;DHT22;6316;48.118;-1.690;2022-11-20T07:32:54;9.80;99.90
12504;DHT22;6316;48.118;-1.690;2022-11-20T07:35:20;9.80;99.90
12504;DHT22;6316;48.118;-1.690;2022-11-20T07:37:46;9.80;99.90
12504;DHT22;6316;48.118;-1.690;2022-11-20T07:40:13;9.80;99.90
12504;DHT22;6316;48.118;-1.690;2022-11-20T07:42:38;9.80;99.90
12504;DHT22;6316;48.118;-1.690;2022-11-20T07:45:04;9.80;99.90
12504;DHT22;6316;48.118;-1.690;2022-11-20T07:47:35;9.80;99.90
12504;DHT22;6316;48.118;-1.690;2022-11-20T07:50:01;9.90;99.90
12504;DHT22;6316;48.118;-1.690;2022-11-20T07:52:27;9.90;99.90
12504;DHT22;6316;48.118;-1.690;2022-11-20T07:54:54;9.90;99.90
12504;DHT22;6316;48.118;-1.690;2022-11-20T07:57:19;9.80;99.90
12504;DHT22;6316;48.118;-1.690;2022-11-20T07:59:45;9.80;99.90
12504;DHT22;6316;48.118;-1.690;2022-11-20T08:02:11;9.80;99.90
12504;DHT22;6316;48.118;-1.690;2022-11-20T08:04:37;9.80;99.90
12504;DHT22;6316;48.118;-1.690;2022-11-20T08:07:02;9.80;99.90
12504;DHT22;6316;48.118;-1.690;2022-11-20T08:09:28;9.80;99.90
12504;DHT22;6316;48.118;-1.690;2022-11-20T08:11:54;9.70;99.90
12504;DHT22;6316;48.118;-1.690;2022-11-20T08:14:38;9.70;99.90
12504;DHT22;6316;48.118;-1.690;2022-11-20T08:17:04;9.70;99.90
12504;DHT22;6316;48.118;-1.690;2022-11-20T08:19:29;9.70;99.90
12504;DHT22;6316;48.118;-1.690;2022-11-20T08:21:55;9.60;99.90
12504;DHT22;6316;48.118;-1.690;2022-11-20T08:24:21;9.60;99.90
12504;DHT22;6316;48.118;-1.690;2022-11-20T08:26:46;9.60;99.90
12504;DHT22;6316;48.118;-1.690;2022-11-20T08:29:12;9.60;99.90
12504;DHT22;6316;48.118;-1.690;2022-11-20T08:31:38;9.60;99.90
12504;DHT22;6316;48.118;-1.690;2022-11-20T08:34:03;9.70;99.90
12504;DHT22;6316;48.118;-1.690;2022-11-20T08:36:32;9.70;99.90
12504;DHT22;6316;48.118;-1.690;2022-11-20T08:38:58;9.80;99.90
12504;DHT22;6316;48.118;-1.690;2022-11-20T08:41:23;9.80;99.90
12504;DHT22;6316;48.118;-1.690;2022-11-20T08:43:56;9.90;99.90
12504;DHT22;6316;48.118;-1.690;2022-11-20T08:46:27;10.00;99.90
12504;DHT22;6316;48.118;-1.690;2022-11-20T08:48:53;10.00;99.90
12504;DHT22;6316;48.118;-1.690;2022-11-20T08:51:19;10.00;99.90
12504;DHT22;6316;48.118;-1.690;2022-11-20T08:53:46;10.10;99.90
12504;DHT22;6316;48.118;-1.690;2022-11-20T08:56:13;10.10;99.90
12504;DHT22;6316;48.118;-1.690;2022-11-20T08:58:39;10.20;99.90
12504;DHT22;6316;48.118;-1.690;2022-11-20T09:01:05;10.20;99.90
12504;DHT22;6316;48.118;-1.690;2022-11-20T09:03:31;10.20;99.90
12504;DHT22;6316;48.118;-1.690;2022-11-20T09:06:01;10.30;99.90
12504;DHT22;6316;48.118;-1.690;2022-11-20T09:08:28;10.30;99.90
12504;DHT22;6316;48.118;-1.690;2022-11-20T09:10:55;10.30;99.90
12504;DHT22;6316;48.118;-1.690;2022-11-20T09:13:22;10.30;99.90
12504;DHT22;6316;48.118;-1.690;2022-11-20T09:15:56;10.30;99.90
12504;DHT22;6316;48.118;-1.690;2022-11-20T09:18:23;10.40;99.90
12504;DHT22;6316;48.118;-1.690;2022-11-20T09:20:50;10.40;99.90
12504;DHT22;6316;48.118;-1.690;2022-11-20T09:23:16;10.40;99.90
12504;DHT22;6316;48.118;-1.690;2022-11-20T09:25:42;10.50;99.90
12504;DHT22;6316;48.118;-1.690;2022-11-20T09:28:08;10.50;99.90
12504;DHT22;6316;48.118;-1.690;2022-11-20T09:30:34;10.50;99.90
12504;DHT22;6316;48.118;-1.690;2022-11-20T09:33:00;10.60;99.90
12504;DHT22;6316;48.118;-1.690;2022-11-20T09:35:25;10.60;99.90
12504;DHT22;6316;48.118;-1.690;2022-11-20T09:37:51;10.70;99.90
12504;DHT22;6316;48.118;-1.690;2022-11-20T09:40:21;10.70;99.90
12504;DHT22;6316;48.118;-1.690;2022-11-20T09:42:54;10.70;99.90
12504;DHT22;6316;48.118;-1.690;2022-11-20T09:48:17;10.80;99.90
12504;DHT22;6316;48.118;-1.690;2022-11-20T09:56:16;10.90;99.90
12504;DHT22;6316;48.118;-1.690;2022-11-20T09:58:48;10.90;99.90
12504;DHT22;6316;48.118;-1.690;2022-11-20T10:01:17;11.10;99.90
12504;DHT22;6316;48.118;-1.690;2022-11-20T10:04:06;11.10;99.90
12504;DHT22;6316;48.118;-1.690;2022-11-20T10:06:56;11.30;99.90
12504;DHT22;6316;48.118;-1.690;2022-11-20T10:09:31;11.40;99.90
12504;DHT22;6316;48.118;-1.690;2022-11-20T10:23:52;11.50;99.90
12504;DHT22;6316;48.118;-1.690;2022-11-20T10:26:31;11.50;99.90
12504;DHT22;6316;48.118;-1.690;2022-11-20T10:31:44;11.50;99.90
12504;DHT22;6316;48.118;-1.690;2022-11-20T10:34:31;11.60;99.90
12504;DHT22;6316;48.118;-1.690;2022-11-20T10:37:02;11.60;99.90
12504;DHT22;6316;48.118;-1.690;2022-11-20T10:42:22;11.70;99.90
12504;DHT22;6316;48.118;-1.690;2022-11-20T10:44:58;11.70;99.90
12504;DHT22;6316;48.118;-1.690;2022-11-20T10:47:28;11.80;99.90
12504;DHT22;6316;48.118;-1.690;2022-11-20T10:49:57;11.90;99.90
12504;DHT22;6316;48.118;-1.690;2022-11-20T10:55:27;11.90;99.90
12504;DHT22;6316;48.118;-1.690;2022-11-20T11:00:30;12.00;99.90
12504;DHT22;6316;48.118;-1.690;2022-11-20T11:02:56;12.00;99.90
12504;DHT22;6316;48.118;-1.690;2022-11-20T11:05:44;12.00;99.90
12504;DHT22;6316;48.118;-1.690;2022-11-20T11:08:14;12.00;99.90
12504;DHT22;6316;48.118;-1.690;2022-11-20T11:10:53;12.10;99.90
12504;DHT22;6316;48.118;-1.690;2022-11-20T11:13:27;12.10;99.90
12504;DHT22;6316;48.118;-1.690;2022-11-20T11:15:54;12.20;99.90
12504;DHT22;6316;48.118;-1.690;2022-11-20T11:18:28;12.20;99.90
12504;DHT22;6316;48.118;-1.690;2022-11-20T11:20:57;12.30;99.90
12504;DHT22;6316;48.118;-1.690;2022-11-20T11:23:40;12.40;99.90
12504;DHT22;6316;48.118;-1.690;2022-11-20T11:26:23;12.50;99.90
12504;DHT22;6316;48.118;-1.690;2022-11-20T11:29:00;12.60;99.90
12504;DHT22;6316;48.118;-1.690;2022-11-20T11:31:31;12.80;99.90
12504;DHT22;6316;48.118;-1.690;2022-11-20T11:34:23;12.90;99.90
12504;DHT22;6316;48.118;-1.690;2022-11-20T11:36:57;12.90;99.90
12504;DHT22;6316;48.118;-1.690;2022-11-20T11:39:24;12.90;99.90
12504;DHT22;6316;48.118;-1.690;2022-11-20T11:41:51;12.90;99.90
12504;DHT22;6316;48.118;-1.690;2022-11-20T11:44:23;12.90;99.90
12504;DHT22;6316;48.118;-1.690;2022-11-20T11:49:49;13.00;99.90
12504;DHT22;6316;48.118;-1.690;2022-11-20T11:52:20;13.00;99.90
12504;DHT22;6316;48.118;-1.690;2022-11-20T11:54:57;13.00;99.90
12504;DHT22;6316;48.118;-1.690;2022-11-20T12:00:11;12.90;99.90
12504;DHT22;6316;48.118;-1.690;2022-11-20T12:07:47;12.80;99.90
12504;DHT22;6316;48.118;-1.690;2022-11-20T12:10:19;12.80;99.90
12504;DHT22;6316;48.118;-1.690;2022-11-20T12:12:53;12.80;99.90
12504;DHT22;6316;48.118;-1.690;2022-11-20T12:15:30;12.80;99.90
12504;DHT22;6316;48.118;-1.690;2022-11-20T12:17:56;12.80;99.90
12504;DHT22;6316;48.118;-1.690;2022-11-20T12:20:26;12.80;99.90
12504;DHT22;6316;48.118;-1.690;2022-11-20T12:25:35;12.80;99.90
12504;DHT22;6316;48.118;-1.690;2022-11-20T12:34:09;13.10;99.90
12504;DHT22;6316;48.118;-1.690;2022-11-20T12:48:25;13.40;99.90
12504;DHT22;6316;48.118;-1.690;2022-11-20T13:07:30;13.80;99.90
12504;DHT22;6316;48.118;-1.690;2022-11-20T13:09:59;13.80;99.90
12504;DHT22;6316;48.118;-1.690;2022-11-20T13:12:43;13.70;99.90
12504;DHT22;6316;48.118;-1.690;2022-11-20T13:18:01;13.70;99.90
12504;DHT22;6316;48.118;-1.690;2022-11-20T13:20:29;13.80;99.90
12504;DHT22;6316;48.118;-1.690;2022-11-20T13:22:56;13.80;99.90
12504;DHT22;6316;48.118;-1.690;2022-11-20T13:25:33;13.90;99.90
12504;DHT22;6316;48.118;-1.690;2022-11-20T13:28:03;14.00;99.90
12504;DHT22;6316;48.118;-1.690;2022-11-20T13:30:29;14.10;99.90
12504;DHT22;6316;48.118;-1.690;2022-11-20T13:32:56;14.20;99.90
12504;DHT22;6316;48.118;-1.690;2022-11-20T13:40:34;14.20;99.90
12504;DHT22;6316;48.118;-1.690;2022-11-20T13:45:28;14.20;99.90
12504;DHT22;6316;48.118;-1.690;2022-11-20T13:47:55;14.20;99.90
12504;DHT22;6316;48.118;-1.690;2022-11-20T13:50:51;14.20;99.90
12504;DHT22;6316;48.118;-1.690;2022-11-20T13:56:14;14.20;99.90
12504;DHT22;6316;48.118;-1.690;2022-11-20T13:59:05;14.30;99.90
12504;DHT22;6316;48.118;-1.690;2022-11-20T14:01:34;14.30;99.90
12504;DHT22;6316;48.118;-1.690;2022-11-20T14:04:09;14.40;99.90
12504;DHT22;6316;48.118;-1.690;2022-11-20T14:06:44;14.40;99.90
12504;DHT22;6316;48.118;-1.690;2022-11-20T14:09:30;14.40;99.90
12504;DHT22;6316;48.118;-1.690;2022-11-20T14:11:56;14.30;99.90
12504;DHT22;6316;48.118;-1.690;2022-11-20T14:14:24;14.20;99.90
12504;DHT22;6316;48.118;-1.690;2022-11-20T14:16:52;14.10;99.90
12504;DHT22;6316;48.118;-1.690;2022-11-20T14:19:24;14.00;99.90
12504;DHT22;6316;48.118;-1.690;2022-11-20T14:22:20;13.90;99.90
12504;DHT22;6316;48.118;-1.690;2022-11-20T14:27:39;13.80;99.90
12504;DHT22;6316;48.118;-1.690;2022-11-20T14:30:16;13.70;99.90
12504;DHT22;6316;48.118;-1.690;2022-11-20T14:32:44;13.70;99.90
12504;DHT22;6316;48.118;-1.690;2022-11-20T14:35:18;13.60;99.90
12504;DHT22;6316;48.118;-1.690;2022-11-20T14:37:45;13.60;99.90
12504;DHT22;6316;48.118;-1.690;2022-11-20T14:40:26;13.70;99.90
12504;DHT22;6316;48.118;-1.690;2022-11-20T14:42:52;13.70;99.90
12504;DHT22;6316;48.118;-1.690;2022-11-20T14:45:19;13.70;99.90
12504;DHT22;6316;48.118;-1.690;2022-11-20T14:47:45;13.70;99.90
12504;DHT22;6316;48.118;-1.690;2022-11-20T14:50:35;13.70;99.90
12504;DHT22;6316;48.118;-1.690;2022-11-20T14:53:00;13.70;99.90
12504;DHT22;6316;48.118;-1.690;2022-11-20T14:55:35;13.70;99.90
12504;DHT22;6316;48.118;-1.690;2022-11-20T14:58:03;13.80;99.90
12504;DHT22;6316;48.118;-1.690;2022-11-20T15:00:30;13.70;99.90
12504;DHT22;6316;48.118;-1.690;2022-11-20T15:02:56;13.70;99.90
12504;DHT22;6316;48.118;-1.690;2022-11-20T15:05:25;13.60;99.90
12504;DHT22;6316;48.118;-1.690;2022-11-20T15:08:12;13.50;99.90
12504;DHT22;6316;48.118;-1.690;2022-11-20T15:10:38;13.50;99.90
12504;DHT22;6316;48.118;-1.690;2022-11-20T15:13:16;13.40;99.90
12504;DHT22;6316;48.118;-1.690;2022-11-20T15:15:46;13.30;99.90
12504;DHT22;6316;48.118;-1.690;2022-11-20T15:18:30;13.30;99.90
12504;DHT22;6316;48.118;-1.690;2022-11-20T15:20:58;13.20;99.90
12504;DHT22;6316;48.118;-1.690;2022-11-20T15:23:26;13.10;99.90
12504;DHT22;6316;48.118;-1.690;2022-11-20T15:25:53;13.10;99.90
12504;DHT22;6316;48.118;-1.690;2022-11-20T15:30:47;12.90;99.90
12504;DHT22;6316;48.118;-1.690;2022-11-20T15:33:14;12.90;99.90
12504;DHT22;6316;48.118;-1.690;2022-11-20T15:35:40;12.80;99.90
12504;DHT22;6316;48.118;-1.690;2022-11-20T15:38:06;12.70;99.90
12504;DHT22;6316;48.118;-1.690;2022-11-20T15:40:32;12.70;99.90
12504;DHT22;6316;48.118;-1.690;2022-11-20T15:42:57;12.70;99.90
12504;DHT22;6316;48.118;-1.690;2022-11-20T15:45:50;12.60;99.90
12504;DHT22;6316;48.118;-1.690;2022-11-20T15:53:36;12.40;99.90
12504;DHT22;6316;48.118;-1.690;2022-11-20T15:56:02;12.40;99.90
12504;DHT22;6316;48.118;-1.690;2022-11-20T15:58:28;12.30;99.90
12504;DHT22;6316;48.118;-1.690;2022-11-20T16:00:54;12.30;99.90
12504;DHT22;6316;48.118;-1.690;2022-11-20T16:03:19;12.20;99.90
12504;DHT22;6316;48.118;-1.690;2022-11-20T16:05:45;12.20;99.90
12504;DHT22;6316;48.118;-1.690;2022-11-20T16:08:11;12.20;99.90
12504;DHT22;6316;48.118;-1.690;2022-11-20T16:10:37;12.20;99.90
12504;DHT22;6316;48.118;-1.690;2022-11-20T16:13:03;12.10;99.90
12504;DHT22;6316;48.118;-1.690;2022-11-20T16:15:59;12.20;99.90
12504;DHT22;6316;48.118;-1.690;2022-11-20T16:18:25;12.10;99.90
12504;DHT22;6316;48.118;-1.690;2022-11-20T16:20:54;12.10;99.90
12504;DHT22;6316;48.118;-1.690;2022-11-20T16:23:20;12.10;99.90
12504;DHT22;6316;48.118;-1.690;2022-11-20T16:25:46;12.00;99.90
12504;DHT22;6316;48.118;-1.690;2022-11-20T16:28:12;12.00;99.90
12504;DHT22;6316;48.118;-1.690;2022-11-20T16:30:39;12.00;99.90
12504;DHT22;6316;48.118;-1.690;2022-11-20T16:33:09;11.90;99.90
12504;DHT22;6316;48.118;-1.690;2022-11-20T16:35:36;11.90;99.90
12504;DHT22;6316;48.118;-1.690;2022-11-20T16:38:02;11.90;99.90
12504;DHT22;6316;48.118;-1.690;2022-11-20T16:40:27;11.80;99.90
12504;DHT22;6316;48.118;-1.690;2022-11-20T16:42:53;11.80;99.90
12504;DHT22;6316;48.118;-1.690;2022-11-20T16:45:19;11.70;99.90
12504;DHT22;6316;48.118;-1.690;2022-11-20T16:47:45;11.70;99.90
12504;DHT22;6316;48.118;-1.690;2022-11-20T16:50:11;11.60;99.90
12504;DHT22;6316;48.118;-1.690;2022-11-20T16:52:36;11.60;99.90
12504;DHT22;6316;48.118;-1.690;2022-11-20T16:55:02;11.50;99.90
12504;DHT22;6316;48.118;-1.690;2022-11-20T16:57:29;11.40;99.90
12504;DHT22;6316;48.118;-1.690;2022-11-20T16:59:55;11.40;99.90
12504;DHT22;6316;48.118;-1.690;2022-11-20T17:02:21;11.40;99.90
12504;DHT22;6316;48.118;-1.690;2022-11-20T17:04:46;11.30;99.90
12504;DHT22;6316;48.118;-1.690;2022-11-20T17:07:12;11.30;99.90
12504;DHT22;6316;48.118;-1.690;2022-11-20T17:09:38;11.20;99.90
12504;DHT22;6316;48.118;-1.690;2022-11-20T17:12:04;11.10;99.90
12504;DHT22;6316;48.118;-1.690;2022-11-20T17:14:30;11.10;99.90
12504;DHT22;6316;48.118;-1.690;2022-11-20T17:16:56;11.10;99.90
12504;DHT22;6316;48.118;-1.690;2022-11-20T17:19:21;11.10;99.90
12504;DHT22;6316;48.118;-1.690;2022-11-20T17:21:47;11.10;99.90
12504;DHT22;6316;48.118;-1.690;2022-11-20T17:24:13;11.00;99.90
12504;DHT22;6316;48.118;-1.690;2022-11-20T17:26:41;11.00;99.90
12504;DHT22;6316;48.118;-1.690;2022-11-20T17:29:10;10.90;99.90
12504;DHT22;6316;48.118;-1.690;2022-11-20T17:31:37;10.90;99.90
12504;DHT22;6316;48.118;-1.690;2022-11-20T17:34:04;10.90;99.90
12504;DHT22;6316;48.118;-1.690;2022-11-20T17:36:30;10.80;99.90
12504;DHT22;6316;48.118;-1.690;2022-11-20T17:38:56;10.80;99.90
12504;DHT22;6316;48.118;-1.690;2022-11-20T17:41:24;10.80;99.90
12504;DHT22;6316;48.118;-1.690;2022-11-20T17:43:55;10.80;99.90
12504;DHT22;6316;48.118;-1.690;2022-11-20T17:46:23;10.80;99.90